Time;durP1;ratioP1;P1;durP2;ratioP2;P2;SDS_P1;SDS_P2;PMS_P1;PMS_P2;Temp;Humidity;BMP_temperature;BMP_pressure;BME280_temperature;BME280_humidity;BME280_pressure;Samples;Min_cycle;Max_cycle;Signal;HPM_P1;HPM_P2
2021/12/10 00:00:22;;;;;;;3.45;1.98;;;18.60;78.80;;;;;;4978367;28;20555;-64
2021/12/10 00:02:49;;;;;;;2.95;2.00;;;18.60;78.90;;;;;;4976950;28;20140;-65
2021/12/10 00:05:15;;;;;;;3.47;1.90;;;18.60;79.00;;;;;;4988382;28;20138;-65
2021/12/10 00:07:42;;;;;;;3.03;1.77;;;18.50;79.00;;;;;;4994513;28;20551;-64
2021/12/10 00:10:08;;;;;;;2.75;1.92;;;18.50;79.10;;;;;;4989790;28;20133;-64
2021/12/10 00:12:35;;;;;;;2.72;1.75;;;18.50;79.20;;;;;;4995252;28;20136;-64
2021/12/10 00:15:02;;;;;;;2.67;1.80;;;18.40;79.20;;;;;;4995088;28;20571;-65
2021/12/10 00:17:29;;;;;;;3.22;1.67;;;18.40;79.20;;;;;;4995177;28;20057;-64
2021/12/10 00:19:57;;;;;;;3.75;1.77;;;18.40;79.30;;;;;;4992908;28;20137;-64
2021/12/10 00:22:23;;;;;;;3.28;1.77;;;18.40;79.40;;;;;;4995399;28;20097;-64
2021/12/10 00:24:50;;;;;;;3.33;1.80;;;18.30;79.40;;;;;;4991128;28;20514;-64
2021/12/10 00:27:26;;;;;;;3.30;2.00;;;18.30;79.50;;;;;;4983630;28;20043;-65
2021/12/10 00:29:52;;;;;;;2.95;2.00;;;18.20;79.50;;;;;;4992394;28;20078;-64
2021/12/10 00:32:29;;;;;;;3.90;2.10;;;18.20;79.50;;;;;;4994081;28;20042;-64
2021/12/10 00:34:56;;;;;;;2.85;1.85;;;18.20;79.60;;;;;;4975497;28;20047;-65
2021/12/10 00:37:22;;;;;;;2.50;1.85;;;18.20;79.60;;;;;;4977774;28;20385;-64
2021/12/10 00:39:51;;;;;;;3.40;1.85;;;18.10;79.70;;;;;;4994779;28;20133;-64
2021/12/10 00:42:18;;;;;;;3.10;1.85;;;18.10;79.70;;;;;;4983925;28;20129;-64
2021/12/10 00:44:44;;;;;;;3.42;1.92;;;18.10;79.80;;;;;;4994650;28;20145;-65
2021/12/10 00:47:10;;;;;;;3.53;1.77;;;18.10;79.90;;;;;;4992141;28;20487;-65
2021/12/10 00:49:37;;;;;;;3.58;1.83;;;18.00;79.80;;;;;;4975725;28;20129;-64
2021/12/10 00:52:03;;;;;;;2.88;1.92;;;18.00;79.90;;;;;;4974637;28;20055;-65
2021/12/10 00:54:30;;;;;;;2.60;1.73;;;18.00;79.90;;;;;;4981706;28;20141;-64
2021/12/10 00:56:56;;;;;;;2.65;1.55;;;17.90;80.00;;;;;;4975231;28;20559;-65
2021/12/10 00:59:23;;;;;;;3.25;1.90;;;17.90;80.00;;;;;;4992828;28;20418;-64
2021/12/10 01:01:49;;;;;;;2.85;1.95;;;17.90;80.10;;;;;;4993258;28;20052;-64
2021/12/10 01:04:16;;;;;;;4.53;1.70;;;17.90;80.10;;;;;;4994023;28;20137;-64
2021/12/10 01:06:42;;;;;;;3.53;2.00;;;17.90;80.20;;;;;;4992895;28;20137;-65
2021/12/10 01:09:09;;;;;;;4.45;2.00;;;17.80;80.20;;;;;;4974820;28;20592;-65
2021/12/10 01:11:36;;;;;;;3.67;2.10;;;17.80;80.20;;;;;;4975196;28;20074;-65
2021/12/10 01:14:11;;;;;;;3.47;1.77;;;17.80;80.30;;;;;;4992448;28;20141;-64
2021/12/10 01:24:54;;;;;;;3.00;1.75;;;17.70;80.40;;;;;;4987276;28;20078;-64
2021/12/10 01:27:28;;;;;;;3.13;2.00;;;17.70;80.50;;;;;;4987417;28;20050;-64
2021/12/10 01:29:57;;;;;;;4.15;1.90;;;17.60;80.40;;;;;;4993619;28;20053;-65
2021/12/10 01:32:24;;;;;;;2.65;1.83;;;17.60;80.50;;;;;;4993708;28;20050;-65
2021/12/10 01:34:50;;;;;;;4.00;2.20;;;17.60;80.50;;;;;;4993770;28;20054;-64
2021/12/10 01:37:17;;;;;;;4.25;1.95;;;17.60;80.60;;;;;;4993896;28;20125;-64
2021/12/10 01:39:43;;;;;;;3.45;1.90;;;17.50;80.60;;;;;;4985745;28;20130;-65
2021/12/10 01:42:19;;;;;;;2.35;2.05;;;17.50;80.60;;;;;;4987620;28;20125;-64
2021/12/10 01:44:46;;;;;;;3.67;2.05;;;17.50;80.70;;;;;;4993691;28;20050;-64
2021/12/10 01:47:12;;;;;;;3.17;1.92;;;17.50;80.70;;;;;;4987755;28;20038;-65
2021/12/10 01:49:40;;;;;;;3.35;2.00;;;17.40;80.70;;;;;;4993675;28;20073;-64
2021/12/10 01:52:06;;;;;;;2.55;1.95;;;17.40;80.80;;;;;;4992070;28;20423;-64
2021/12/10 01:54:34;;;;;;;3.75;1.80;;;17.40;80.80;;;;;;4974539;28;20057;-64
2021/12/10 01:57:02;;;;;;;3.20;1.90;;;17.40;80.80;;;;;;4985934;28;20088;-64
2021/12/10 01:59:29;;;;;;;3.45;2.08;;;17.40;81.50;;;;;;4993289;28;20049;-65
2021/12/10 02:01:55;;;;;;;3.05;1.40;;;17.40;81.50;;;;;;4992441;28;20427;-64
2021/12/10 02:04:21;;;;;;;2.95;2.03;;;17.30;80.90;;;;;;4993333;28;20046;-64
2021/12/10 02:06:48;;;;;;;3.63;1.90;;;17.30;81.00;;;;;;4986444;28;20049;-65
2021/12/10 02:09:14;;;;;;;2.63;1.98;;;17.30;81.00;;;;;;4974049;28;20133;-64
2021/12/10 02:11:41;;;;;;;2.42;1.80;;;17.20;81.00;;;;;;4985311;28;20046;-64
2021/12/10 02:14:07;;;;;;;3.28;2.05;;;17.30;81.10;;;;;;4983218;28;20536;-64
2021/12/10 02:16:36;;;;;;;4.20;1.95;;;17.20;81.10;;;;;;4984252;28;20092;-64
2021/12/10 02:19:02;;;;;;;3.17;2.10;;;17.20;81.10;;;;;;4993328;28;20047;-64
2021/12/10 02:21:30;;;;;;;3.75;2.08;;;17.20;81.10;;;;;;4992728;28;20551;-65
2021/12/10 02:23:57;;;;;;;2.58;1.70;;;17.20;81.20;;;;;;4992960;28;20054;-64
2021/12/10 02:26:24;;;;;;;3.70;1.90;;;17.20;81.20;;;;;;4988561;28;20043;-64
2021/12/10 02:28:50;;;;;;;4.10;2.20;;;17.10;81.20;;;;;;4973503;28;20129;-64
2021/12/10 02:31:16;;;;;;;2.70;1.95;;;17.10;81.10;;;;;;4981552;28;20506;-64
2021/12/10 02:33:43;;;;;;;2.65;1.98;;;17.10;81.30;;;;;;4993003;28;20076;-64
2021/12/10 02:36:12;;;;;;;3.42;1.98;;;17.10;81.20;;;;;;4992925;28;20085;-64
2021/12/10 02:38:38;;;;;;;3.05;2.05;;;17.10;81.30;;;;;;4993107;28;20046;-64
2021/12/10 02:41:05;;;;;;;3.20;1.95;;;17.10;81.20;;;;;;4988914;28;20579;-64
2021/12/10 02:43:31;;;;;;;4.18;2.17;;;17.10;81.20;;;;;;4973646;28;20138;-64
2021/12/10 02:45:57;;;;;;;3.72;2.00;;;17.10;81.20;;;;;;4981055;28;20082;-64
2021/12/10 02:48:24;;;;;;;3.55;2.20;;;17.00;81.10;;;;;;4993143;28;20494;-64
2021/12/10 02:50:50;;;;;;;2.60;1.80;;;17.00;81.20;;;;;;4992321;28;20068;-64
2021/12/10 02:53:23;;;;;;;2.88;1.90;;;17.10;81.20;;;;;;4992744;28;20129;-64
2021/12/10 02:55:49;;;;;;;2.50;1.70;;;17.10;81.20;;;;;;4977915;28;20105;-64
2021/12/10 02:58:15;;;;;;;4.22;1.92;;;17.00;81.00;;;;;;4973280;28;20051;-64
2021/12/10 03:00:42;;;;;;;3.88;2.00;;;17.00;81.00;;;;;;4987077;28;20411;-64
2021/12/10 03:03:08;;;;;;;3.38;1.80;;;17.00;81.10;;;;;;4985728;28;20046;-64
2021/12/10 03:05:35;;;;;;;3.70;1.77;;;17.00;81.10;;;;;;4992147;28;20066;-64
2021/12/10 03:08:01;;;;;;;3.42;1.90;;;17.00;81.10;;;;;;4992802;28;20047;-64
2021/12/10 03:10:28;;;;;;;2.78;1.63;;;17.00;81.00;;;;;;4992330;28;20046;-64
2021/12/10 03:12:54;;;;;;;2.25;1.88;;;17.00;81.00;;;;;;4992555;28;20043;-64
2021/12/10 03:15:21;;;;;;;3.22;2.25;;;17.00;81.00;;;;;;4994429;28;20077;-64
2021/12/10 03:17:48;;;;;;;3.38;2.20;;;17.00;81.00;;;;;;4985490;28;20049;-64
2021/12/10 03:20:14;;;;;;;2.17;1.73;;;17.00;81.00;;;;;;4988566;28;20057;-64
2021/12/10 03:22:40;;;;;;;3.65;2.00;;;17.00;80.90;;;;;;4995527;28;20046;-65
2021/12/10 03:25:07;;;;;;;1.95;1.50;;;17.00;80.90;;;;;;4986937;28;20615;-65
2021/12/10 03:27:33;;;;;;;2.72;2.00;;;17.00;80.90;;;;;;4976878;28;20081;-64
2021/12/10 03:30:00;;;;;;;4.13;2.10;;;17.00;80.90;;;;;;4976561;28;20142;-64
2021/12/10 03:32:28;;;;;;;2.60;1.75;;;17.00;80.80;;;;;;4976685;28;20046;-64
2021/12/10 03:34:55;;;;;;;3.20;1.95;;;17.00;80.90;;;;;;4976576;28;20484;-64
2021/12/10 03:37:21;;;;;;;2.78;1.70;;;17.00;80.80;;;;;;4976704;28;20126;-64
2021/12/10 03:39:48;;;;;;;2.50;1.92;;;17.00;80.80;;;;;;4976409;28;20492;-64
2021/12/10 03:42:15;;;;;;;2.85;1.90;;;17.00;80.80;;;;;;4976324;28;20419;-64
2021/12/10 03:44:41;;;;;;;2.97;2.22;;;17.00;80.80;;;;;;4976573;28;20053;-64
2021/12/10 03:47:08;;;;;;;2.88;1.95;;;17.00;80.90;;;;;;4976542;28;20046;-64
2021/12/10 03:49:35;;;;;;;2.80;1.83;;;17.00;80.70;;;;;;4976339;28;20153;-64
2021/12/10 03:52:01;;;;;;;2.80;1.60;;;17.00;80.70;;;;;;4976625;28;20093;-65
2021/12/10 03:54:29;;;;;;;3.35;1.73;;;17.00;80.70;;;;;;4993442;28;20089;-65
2021/12/10 03:56:56;;;;;;;2.65;1.92;;;17.00;80.60;;;;;;4995947;28;20043;-64
2021/12/10 03:59:22;;;;;;;2.33;1.70;;;17.00;80.60;;;;;;4995587;28;20078;-64
2021/12/10 04:01:49;;;;;;;2.97;1.73;;;17.00;80.60;;;;;;4995309;28;20411;-64
2021/12/10 04:04:15;;;;;;;2.97;1.70;;;17.00;80.60;;;;;;4981105;28;20054;-64
2021/12/10 04:06:42;;;;;;;4.25;2.17;;;17.00;80.60;;;;;;4976120;28;20058;-64
2021/12/10 04:09:08;;;;;;;4.07;1.98;;;17.00;80.50;;;;;;4976102;28;20141;-64
2021/12/10 04:11:34;;;;;;;4.40;2.05;;;17.00;80.50;;;;;;4976043;28;20053;-64
2021/12/10 04:14:01;;;;;;;2.25;1.63;;;17.00;80.50;;;;;;4978733;28;20161;-65
2021/12/10 04:16:27;;;;;;;5.03;1.98;;;17.00;80.50;;;;;;4984455;28;20074;-64
2021/12/10 04:18:54;;;;;;;2.97;1.80;;;17.00;80.50;;;;;;4995117;28;20141;-64
2021/12/10 04:21:20;;;;;;;2.90;1.88;;;17.00;80.50;;;;;;4995380;28;20473;-64
2021/12/10 04:23:47;;;;;;;3.75;2.47;;;17.00;80.50;;;;;;4993982;28;20061;-64
2021/12/10 04:26:13;;;;;;;3.28;1.90;;;17.00;80.50;;;;;;4995317;28;20046;-64
2021/12/10 04:28:40;;;;;;;2.53;1.90;;;17.00;80.40;;;;;;4995227;28;20141;-64
2021/12/10 04:31:06;;;;;;;2.50;1.85;;;17.00;80.40;;;;;;4994819;28;20046;-64
2021/12/10 04:33:33;;;;;;;2.67;1.80;;;17.00;80.40;;;;;;4995379;28;20073;-64
2021/12/10 04:35:59;;;;;;;3.70;2.15;;;17.00;80.40;;;;;;4981865;28;20145;-64
2021/12/10 04:38:26;;;;;;;2.20;1.85;;;17.00;80.40;;;;;;4975347;28;20051;-64
2021/12/10 04:40:52;;;;;;;3.85;1.98;;;17.00;80.40;;;;;;4975613;28;20137;-64
2021/12/10 04:43:18;;;;;;;2.78;1.80;;;17.00;80.40;;;;;;4975244;28;20047;-64
2021/12/10 04:45:45;;;;;;;2.05;1.85;;;17.00;80.30;;;;;;4975301;28;20507;-64
2021/12/10 04:48:11;;;;;;;3.22;2.13;;;17.00;80.40;;;;;;4975756;28;20046;-64
2021/12/10 04:50:38;;;;;;;2.85;1.98;;;17.00;80.30;;;;;;4975445;28;20047;-64
2021/12/10 04:53:04;;;;;;;2.90;2.05;;;17.00;80.30;;;;;;4975415;28;20047;-64
2021/12/10 04:55:31;;;;;;;3.60;1.80;;;17.00;80.30;;;;;;4975202;28;20054;-64
2021/12/10 04:57:57;;;;;;;3.10;2.15;;;17.00;80.30;;;;;;4975075;28;20614;-64
2021/12/10 05:00:25;;;;;;;2.85;1.92;;;17.00;80.30;;;;;;4974781;28;20050;-64
2021/12/10 05:02:52;;;;;;;3.10;1.92;;;17.00;80.30;;;;;;4975159;28;20043;-64
2021/12/10 05:05:18;;;;;;;2.53;1.85;;;17.00;80.30;;;;;;4974972;28;20054;-64
2021/12/10 05:07:45;;;;;;;2.90;1.77;;;17.00;80.30;;;;;;4975170;28;20047;-64
2021/12/10 05:10:11;;;;;;;4.38;2.00;;;17.00;80.30;;;;;;4979288;28;20045;-64
2021/12/10 05:12:38;;;;;;;3.72;2.05;;;17.00;80.30;;;;;;4994102;28;20578;-64
2021/12/10 05:15:05;;;;;;;3.10;1.92;;;17.00;80.20;;;;;;4994143;28;20144;-64
2021/12/10 05:17:34;;;;;;;2.75;2.00;;;17.00;80.30;;;;;;4994370;28;20054;-64
2021/12/10 05:20:01;;;;;;;2.80;1.70;;;17.00;80.20;;;;;;4993978;28;20048;-64
2021/12/10 05:22:27;;;;;;;3.42;2.03;;;17.00;80.20;;;;;;4994172;28;20073;-64
2021/12/10 05:24:53;;;;;;;3.45;2.10;;;17.00;80.20;;;;;;4985916;28;20055;-64
2021/12/10 05:27:20;;;;;;;2.40;1.58;;;17.00;80.20;;;;;;4974457;28;20053;-64
2021/12/10 05:29:47;;;;;;;2.33;1.70;;;17.00;80.20;;;;;;4993084;28;20052;-64
2021/12/10 05:32:16;;;;;;;2.55;1.80;;;17.00;80.10;;;;;;4993939;28;20042;-65
2021/12/10 05:34:43;;;;;;;2.30;2.03;;;17.00;80.10;;;;;;4993463;28;20047;-64
2021/12/10 05:37:10;;;;;;;3.92;1.95;;;17.00;80.10;;;;;;4993319;28;20082;-64
2021/12/10 05:39:36;;;;;;;2.47;1.85;;;17.00;80.10;;;;;;4992881;28;20089;-64
2021/12/10 05:42:04;;;;;;;3.45;2.00;;;17.00;80.10;;;;;;4993641;28;20042;-64
2021/12/10 05:44:30;;;;;;;3.00;1.73;;;17.00;80.10;;;;;;4993390;28;20061;-64
2021/12/10 05:46:58;;;;;;;2.40;1.63;;;17.00;80.10;;;;;;4993462;28;20042;-65
2021/12/10 05:49:24;;;;;;;2.20;1.75;;;17.00;80.10;;;;;;4993417;28;20562;-64
2021/12/10 05:51:51;;;;;;;1.88;1.60;;;17.00;80.10;;;;;;4993241;28;20042;-64
2021/12/10 05:54:17;;;;;;;2.92;1.70;;;17.00;80.10;;;;;;4992124;28;20078;-64
2021/12/10 05:56:44;;;;;;;2.65;1.85;;;17.00;80.00;;;;;;4993132;28;20551;-64
2021/12/10 05:59:10;;;;;;;3.25;1.90;;;17.00;80.00;;;;;;4993559;28;20130;-64
2021/12/10 06:01:37;;;;;;;2.40;1.98;;;17.00;80.00;;;;;;4985205;28;20058;-64
2021/12/10 06:04:03;;;;;;;3.15;1.90;;;17.00;80.00;;;;;;4993302;28;20050;-64
2021/12/10 06:06:30;;;;;;;3.10;1.88;;;17.00;79.90;;;;;;4992344;28;20057;-64
2021/12/10 06:08:56;;;;;;;2.10;1.90;;;17.00;79.90;;;;;;4993170;28;20137;-64
2021/12/10 06:11:23;;;;;;;2.80;1.98;;;17.00;80.00;;;;;;4992869;28;20506;-64
2021/12/10 06:13:49;;;;;;;2.17;1.60;;;17.00;79.90;;;;;;4993297;28;20400;-64
2021/12/10 06:16:15;;;;;;;2.58;1.98;;;17.00;79.90;;;;;;4993319;28;20046;-64
2021/12/10 06:18:42;;;;;;;3.67;1.70;;;17.00;79.80;;;;;;4992857;28;20085;-64
2021/12/10 06:21:08;;;;;;;2.00;1.77;;;17.00;79.80;;;;;;4992290;28;20574;-64
2021/12/10 06:23:35;;;;;;;2.33;1.85;;;17.00;79.80;;;;;;4992737;28;20072;-64
2021/12/10 06:26:03;;;;;;;2.00;1.50;;;17.00;79.80;;;;;;4993076;28;20053;-64
2021/12/10 06:28:30;;;;;;;2.40;1.73;;;17.00;79.80;;;;;;4992863;28;20142;-64
2021/12/10 06:30:56;;;;;;;2.72;1.50;;;17.00;79.80;;;;;;4992509;28;20049;-64
2021/12/10 06:33:23;;;;;;;1.90;1.65;;;17.00;79.80;;;;;;4992315;28;20133;-64
2021/12/10 06:35:50;;;;;;;2.30;1.63;;;17.00;79.80;;;;;;4992717;28;20058;-65
2021/12/10 06:38:16;;;;;;;2.28;1.80;;;17.00;79.70;;;;;;4976360;28;20131;-65
2021/12/10 06:40:42;;;;;;;3.53;1.73;;;17.00;79.70;;;;;;4988595;28;20059;-64
2021/12/10 06:43:09;;;;;;;2.03;1.40;;;17.00;79.70;;;;;;4990153;28;20121;-64
2021/12/10 06:45:35;;;;;;;3.00;1.90;;;17.00;79.70;;;;;;4984065;28;20141;-64
2021/12/10 06:48:02;;;;;;;2.88;1.70;;;17.00;79.70;;;;;;4973384;28;20080;-64
2021/12/10 06:50:28;;;;;;;1.77;1.42;;;17.00;79.70;;;;;;4992125;28;20054;-64
2021/12/10 06:52:55;;;;;;;1.75;1.48;;;17.00;79.60;;;;;;4996738;28;20082;-64
2021/12/10 06:55:21;;;;;;;2.33;1.58;;;17.00;79.60;;;;;;4996536;28;20042;-64
2021/12/10 06:57:48;;;;;;;2.90;1.45;;;17.00;79.50;;;;;;4996340;28;20324;-63
2021/12/10 07:00:14;;;;;;;1.58;1.17;;;17.20;79.40;;;;;;4994796;28;20459;-64
2021/12/10 07:02:41;;;;;;;1.58;1.20;;;17.30;79.20;;;;;;4996426;28;20038;-64
2021/12/10 07:05:07;;;;;;;2.42;1.17;;;17.50;79.00;;;;;;4996114;28;20061;-64
2021/12/10 07:07:34;;;;;;;2.05;1.20;;;17.70;78.70;;;;;;4994873;28;20142;-65
2021/12/10 07:10:00;;;;;;;2.20;1.17;;;18.00;78.50;;;;;;4995953;28;20053;-64
2021/12/10 07:12:27;;;;;;;1.98;1.30;;;18.20;78.20;;;;;;4994782;28;20422;-64
2021/12/10 07:14:53;;;;;;;1.60;1.00;;;18.30;78.00;;;;;;4976854;28;20081;-64
2021/12/10 07:17:19;;;;;;;2.47;1.42;;;18.40;77.90;;;;;;4980999;28;20130;-65
2021/12/10 07:19:46;;;;;;;2.60;1.60;;;18.40;77.80;;;;;;4995163;28;20057;-64
2021/12/10 07:22:12;;;;;;;2.53;1.20;;;18.40;77.80;;;;;;4996104;28;20456;-64
2021/12/10 07:24:39;;;;;;;2.40;1.20;;;18.40;77.90;;;;;;4996613;28;20145;-64
2021/12/10 07:27:09;;;;;;;1.73;1.20;;;18.40;77.90;;;;;;4996394;28;20093;-64
2021/12/10 07:29:36;;;;;;;1.60;1.20;;;18.40;77.80;;;;;;4996176;28;20050;-64
2021/12/10 07:32:02;;;;;;;2.92;1.30;;;18.30;77.80;;;;;;4995808;28;20506;-65
2021/12/10 07:34:29;;;;;;;1.60;1.10;;;18.30;77.70;;;;;;4996381;28;20136;-64
2021/12/10 07:36:55;;;;;;;2.42;1.25;;;18.40;77.80;;;;;;4996350;28;20077;-64
2021/12/10 07:39:22;;;;;;;2.40;1.27;;;18.40;77.70;;;;;;4995930;28;20092;-64
2021/12/10 07:41:48;;;;;;;2.40;1.55;;;18.40;77.70;;;;;;4995985;28;20478;-64
2021/12/10 07:44:14;;;;;;;2.35;1.30;;;18.30;77.60;;;;;;4996089;28;20053;-64
2021/12/10 07:46:41;;;;;;;1.45;1.15;;;18.30;77.50;;;;;;4995894;28;20141;-64
2021/12/10 07:49:13;;;;;;;2.28;1.35;;;18.30;77.50;;;;;;4995793;28;20133;-64
2021/12/10 07:51:40;;;;;;;1.58;1.27;;;18.30;77.40;;;;;;4995963;28;20051;-64
2021/12/10 07:54:07;;;;;;;2.67;1.38;;;18.30;77.40;;;;;;4995703;28;20142;-64
2021/12/10 07:56:33;;;;;;;1.70;1.50;;;18.30;77.30;;;;;;4996001;28;20461;-64
2021/12/10 07:59:00;;;;;;;1.45;1.30;;;18.30;77.20;;;;;;4978344;28;20143;-64
2021/12/10 08:01:26;;;;;;;1.33;1.10;;;18.30;77.20;;;;;;4975369;28;20153;-64
2021/12/10 08:03:53;;;;;;;1.80;1.25;;;18.40;77.20;;;;;;4976391;28;20055;-64
2021/12/10 08:06:20;;;;;;;1.83;1.10;;;18.30;77.10;;;;;;4976323;28;20145;-64
2021/12/10 08:08:47;;;;;;;2.95;1.33;;;18.30;77.00;;;;;;4976258;28;20051;-64
2021/12/10 08:11:13;;;;;;;2.05;1.30;;;18.30;77.00;;;;;;4975940;28;20074;-64
2021/12/10 08:13:39;;;;;;;1.63;1.15;;;18.40;77.00;;;;;;4976074;28;20051;-64
2021/12/10 08:16:06;;;;;;;1.50;1.40;;;18.40;76.90;;;;;;4976097;28;20053;-64
2021/12/10 08:18:32;;;;;;;1.60;1.25;;;18.30;76.80;;;;;;4976075;28;20090;-64
2021/12/10 08:20:59;;;;;;;2.22;1.30;;;18.40;76.80;;;;;;4975788;28;20057;-64
2021/12/10 08:23:25;;;;;;;1.30;1.17;;;18.40;76.70;;;;;;4976035;28;20456;-64
2021/12/10 08:25:52;;;;;;;1.52;1.15;;;18.40;76.60;;;;;;4976219;28;20129;-64
2021/12/10 08:28:21;;;;;;;1.30;1.17;;;18.40;76.60;;;;;;4976039;28;20050;-64
2021/12/10 08:30:48;;;;;;;1.38;1.10;;;18.40;76.50;;;;;;4975386;28;20414;-64
2021/12/10 08:33:14;;;;;;;2.03;1.10;;;18.40;76.40;;;;;;4975813;28;20074;-64
2021/12/10 08:35:41;;;;;;;1.40;1.15;;;18.50;76.10;;;;;;4975750;28;20047;-64
2021/12/10 08:38:07;;;;;;;2.00;1.20;;;18.60;76.20;;;;;;4975545;28;20133;-64
2021/12/10 08:40:34;;;;;;;1.40;0.90;;;18.60;75.90;;;;;;4975526;28;20474;-64
2021/12/10 08:43:00;;;;;;;1.90;1.10;;;18.70;75.80;;;;;;4975470;28;20051;-64
2021/12/10 08:45:27;;;;;;;1.50;1.02;;;18.80;75.70;;;;;;4975277;28;20141;-64
2021/12/10 08:47:53;;;;;;;2.20;1.20;;;18.80;75.60;;;;;;4975602;28;20053;-65
2021/12/10 08:50:22;;;;;;;1.42;1.20;;;18.80;75.50;;;;;;4975301;28;20054;-64
2021/12/10 08:52:49;;;;;;;1.50;1.13;;;18.80;75.40;;;;;;4975212;28;20621;-64
2021/12/10 08:55:17;;;;;;;1.40;1.10;;;18.80;75.40;;;;;;4975744;28;20129;-64
2021/12/10 08:57:44;;;;;;;1.55;1.00;;;18.80;75.40;;;;;;4974850;28;20070;-64
2021/12/10 09:00:10;;;;;;;1.50;1.20;;;18.90;75.40;;;;;;4974736;28;20479;-65
2021/12/10 09:02:37;;;;;;;1.10;0.95;;;18.90;75.30;;;;;;4975328;28;20133;-64
2021/12/10 09:05:04;;;;;;;2.28;1.13;;;18.90;75.30;;;;;;4975077;28;20059;-65
2021/12/10 09:07:30;;;;;;;2.20;1.13;;;18.90;75.20;;;;;;4974989;28;20483;-64
2021/12/10 09:09:57;;;;;;;1.42;1.08;;;18.90;75.10;;;;;;4974921;28;20074;-64
2021/12/10 09:12:24;;;;;;;3.47;1.35;;;18.90;75.10;;;;;;4974092;28;20051;-64
2021/12/10 09:14:53;;;;;;;1.95;1.10;;;18.90;75.10;;;;;;4974740;28;20053;-64
2021/12/10 09:17:21;;;;;;;1.45;1.25;;;18.90;75.00;;;;;;4975107;28;20046;-64
2021/12/10 09:19:48;;;;;;;1.98;1.17;;;19.00;75.00;;;;;;4974986;28;20134;-65
2021/12/10 09:22:14;;;;;;;1.55;0.90;;;19.00;74.90;;;;;;4974620;28;20094;-65
2021/12/10 09:24:41;;;;;;;2.05;1.25;;;19.00;74.80;;;;;;4974385;28;20452;-64
2021/12/10 09:27:07;;;;;;;2.20;0.90;;;19.00;74.70;;;;;;4974676;28;20051;-65
2021/12/10 09:29:35;;;;;;;2.28;1.02;;;19.00;74.70;;;;;;4974653;28;20503;-65
2021/12/10 09:32:01;;;;;;;2.00;1.30;;;19.00;74.70;;;;;;4974281;28;20055;-64
2021/12/10 09:34:28;;;;;;;1.27;1.00;;;19.10;74.70;;;;;;4974720;28;20126;-64
2021/12/10 09:36:55;;;;;;;1.67;1.00;;;19.10;74.60;;;;;;4974498;28;20047;-64
2021/12/10 09:39:22;;;;;;;1.70;1.00;;;19.10;74.60;;;;;;4974341;28;20050;-64
2021/12/10 09:41:48;;;;;;;2.58;1.10;;;19.10;74.60;;;;;;4974560;28;20051;-64
2021/12/10 09:44:15;;;;;;;2.05;1.17;;;19.10;74.60;;;;;;4974442;28;20121;-64
2021/12/10 09:46:41;;;;;;;1.80;1.08;;;19.10;74.50;;;;;;4974480;28;20086;-65
2021/12/10 09:49:08;;;;;;;1.67;1.30;;;19.10;74.50;;;;;;4974546;28;20481;-64
2021/12/10 09:51:34;;;;;;;1.52;1.20;;;19.10;74.50;;;;;;4974220;28;20082;-64
2021/12/10 09:54:01;;;;;;;1.13;1.00;;;19.10;74.50;;;;;;4974389;28;20142;-65
2021/12/10 09:56:27;;;;;;;0.93;0.80;;;19.00;74.40;;;;;;4974084;28;20451;-64
2021/12/10 09:58:54;;;;;;;2.13;1.30;;;19.10;74.60;;;;;;4974288;28;20043;-64
2021/12/10 10:01:20;;;;;;;1.33;1.05;;;19.00;74.50;;;;;;4973722;28;20062;-64
2021/12/10 10:03:48;;;;;;;1.40;0.85;;;19.00;74.50;;;;;;4974074;28;20516;-64
2021/12/10 10:06:14;;;;;;;1.35;1.10;;;19.00;74.50;;;;;;4974142;28;20082;-64
2021/12/10 10:08:41;;;;;;;1.88;1.25;;;19.00;74.50;;;;;;4973801;28;20057;-64
2021/12/10 10:11:07;;;;;;;1.20;1.00;;;19.00;74.50;;;;;;4973828;28;20051;-65
2021/12/10 10:13:34;;;;;;;1.23;1.00;;;18.90;74.50;;;;;;4974185;28;20074;-64
2021/12/10 10:16:00;;;;;;;1.30;0.90;;;18.90;74.60;;;;;;4973879;28;20134;-64
2021/12/10 10:18:27;;;;;;;1.17;0.90;;;18.90;74.60;;;;;;4973772;28;20142;-64
2021/12/10 10:20:54;;;;;;;1.60;1.20;;;18.90;74.60;;;;;;4973711;28;20051;-64
2021/12/10 10:23:21;;;;;;;1.60;0.90;;;18.90;74.60;;;;;;4973931;28;20085;-64
2021/12/10 10:25:47;;;;;;;1.23;0.90;;;18.90;74.60;;;;;;4973823;28;20057;-64
2021/12/10 10:28:14;;;;;;;1.38;0.90;;;18.90;74.60;;;;;;4973615;28;20074;-64
2021/12/10 10:30:41;;;;;;;2.05;1.20;;;18.90;74.60;;;;;;4973662;28;20047;-64
2021/12/10 10:33:07;;;;;;;1.45;0.90;;;18.90;74.60;;;;;;4973557;28;20050;-65
2021/12/10 10:35:34;;;;;;;1.35;0.77;;;18.90;74.60;;;;;;4973433;28;20129;-65
2021/12/10 10:38:00;;;;;;;1.30;1.10;;;18.90;74.70;;;;;;4973743;28;20046;-64
2021/12/10 10:40:27;;;;;;;1.02;0.93;;;18.80;74.60;;;;;;4973693;28;20098;-65
2021/12/10 10:42:53;;;;;;;1.13;0.80;;;18.90;74.60;;;;;;4973746;28;20078;-64
2021/12/10 10:45:20;;;;;;;1.38;0.93;;;18.90;74.60;;;;;;4973260;28;20061;-64
2021/12/10 10:47:46;;;;;;;1.00;0.90;;;18.90;74.60;;;;;;4973821;28;20046;-64
2021/12/10 10:50:13;;;;;;;1.75;1.10;;;18.90;74.60;;;;;;4973602;28;20130;-64
2021/12/10 10:52:39;;;;;;;1.38;1.00;;;18.90;74.60;;;;;;4973414;28;20061;-64
2021/12/10 10:55:06;;;;;;;1.27;0.95;;;18.90;75.20;;;;;;4973657;28;20078;-64
2021/12/10 10:57:32;;;;;;;1.73;1.00;;;18.90;74.70;;;;;;4973552;28;20137;-64
2021/12/10 10:59:59;;;;;;;2.20;1.20;;;18.90;74.70;;;;;;4973226;28;20192;-64
2021/12/10 11:02:26;;;;;;;1.10;0.98;;;18.80;74.60;;;;;;4973251;28;20078;-64
2021/12/10 11:04:52;;;;;;;1.27;0.90;;;18.80;74.60;;;;;;4973468;28;20051;-64
2021/12/10 11:07:20;;;;;;;1.27;1.15;;;18.80;74.70;;;;;;4984518;28;20050;-64
2021/12/10 11:09:46;;;;;;;1.73;1.08;;;18.80;74.60;;;;;;4988081;28;20492;-65
2021/12/10 11:12:13;;;;;;;2.38;1.17;;;18.80;74.60;;;;;;4972816;28;20054;-65
2021/12/10 11:14:39;;;;;;;1.33;1.13;;;18.80;74.70;;;;;;4976248;28;20039;-67
2021/12/10 11:17:06;;;;;;;3.00;1.15;;;18.80;74.80;;;;;;4982938;28;20133;-71
2021/12/10 11:19:32;;;;;;;1.90;1.20;;;18.80;74.80;;;;;;4984473;28;20527;-68
2021/12/10 11:21:59;;;;;;;1.77;0.80;;;18.80;74.90;;;;;;4978190;28;20061;-68
2021/12/10 11:24:25;;;;;;;1.42;0.88;;;18.80;75.00;;;;;;4973221;28;20122;-68
2021/12/10 11:26:52;;;;;;;2.17;1.15;;;18.80;75.20;;;;;;4986792;28;20057;-68
2021/12/10 11:29:18;;;;;;;2.00;1.35;;;18.80;75.10;;;;;;4979912;28;20089;-69
2021/12/10 11:31:45;;;;;;;2.90;1.30;;;18.70;74.90;;;;;;4988883;28;20522;-70
2021/12/10 11:34:11;;;;;;;18.13;3.25;;;18.70;75.00;;;;;;4989258;28;20082;-67
2021/12/10 11:36:39;;;;;;;4.50;1.95;;;18.70;75.80;;;;;;4989448;28;20141;-68
2021/12/10 11:39:06;;;;;;;6.10;2.25;;;18.70;75.60;;;;;;4993314;28;20369;-69
2021/12/10 11:41:38;;;;;;;17.20;3.70;;;18.70;75.40;;;;;;4992616;28;20058;-66
2021/12/10 11:44:19;;;;;;;9.23;2.90;;;18.70;76.10;;;;;;4973999;28;20105;-65
2021/12/10 11:46:48;;;;;;;8.52;3.13;;;18.70;76.20;;;;;;4987794;28;20051;-66
2021/12/10 11:49:14;;;;;;;10.18;3.10;;;18.70;76.20;;;;;;4988522;28;20301;-66
2021/12/10 11:51:41;;;;;;;8.32;3.20;;;18.70;76.00;;;;;;4989173;28;20150;-66
2021/12/10 11:54:08;;;;;;;5.47;2.95;;;18.70;76.00;;;;;;4973402;28;20042;-66
2021/12/10 11:56:34;;;;;;;7.90;3.25;;;18.70;76.00;;;;;;4973335;28;20043;-66
2021/12/10 11:59:00;;;;;;;5.03;2.97;;;18.70;76.10;;;;;;4974765;28;20046;-66
2021/12/10 12:01:27;;;;;;;6.97;2.80;;;18.70;75.90;;;;;;4975494;28;20130;-67
2021/12/10 12:03:53;;;;;;;7.85;3.17;;;18.70;75.80;;;;;;4985412;28;20054;-67
2021/12/10 12:06:20;;;;;;;4.50;2.53;;;18.70;75.90;;;;;;4977675;28;20490;-66
2021/12/10 12:08:46;;;;;;;6.28;2.92;;;18.70;75.90;;;;;;4977323;28;20125;-66
2021/12/10 12:11:13;;;;;;;4.72;2.70;;;18.70;76.00;;;;;;4991502;28;20094;-66
2021/12/10 12:13:43;;;;;;;5.00;2.60;;;18.70;75.80;;;;;;4992393;28;20121;-67
2021/12/10 12:16:13;;;;;;;5.03;2.53;;;18.70;75.90;;;;;;4987977;28;20708;-65
2021/12/10 12:18:39;;;;;;;4.00;2.20;;;18.70;76.00;;;;;;4974698;28;20074;-65
2021/12/10 12:26:30;;;;;;;7.90;2.30;;;18.70;76.10;;;;;;4992072;28;20058;-69
2021/12/10 12:28:57;;;;;;;4.57;2.22;;;18.70;76.50;;;;;;4991422;28;20576;-67
2021/12/10 12:31:23;;;;;;;5.50;2.50;;;18.70;76.70;;;;;;4991079;28;20149;-67
2021/12/10 12:33:50;;;;;;;4.82;2.05;;;18.60;76.70;;;;;;4991148;28;20371;-66
2021/12/10 12:36:16;;;;;;;2.97;1.63;;;18.60;76.90;;;;;;4991329;28;20060;-67
2021/12/10 12:38:43;;;;;;;5.88;2.20;;;18.60;76.80;;;;;;4990298;28;20060;-66
2021/12/10 12:41:09;;;;;;;5.63;1.98;;;18.60;76.70;;;;;;4991454;28;20577;-67
2021/12/10 12:43:36;;;;;;;5.60;2.08;;;18.60;76.90;;;;;;4991453;28;20046;-67
2021/12/10 12:46:02;;;;;;;3.40;1.63;;;18.60;77.00;;;;;;4991957;28;20046;-67
2021/12/10 12:48:29;;;;;;;8.18;1.98;;;18.60;77.10;;;;;;4989763;28;20085;-67
2021/12/10 12:51:01;;;;;;;4.97;2.00;;;18.60;77.20;;;;;;4982469;28;20054;-65
2021/12/10 12:53:29;;;;;;;4.10;1.70;;;18.50;77.30;;;;;;4990541;28;20054;-66
2021/12/10 12:55:56;;;;;;;3.67;2.03;;;18.50;77.40;;;;;;4993756;28;20393;-65